sensor_id;sensor_type;location;lat;lon;timestamp;P1;durP1;ratioP1;P2;durP2;ratioP2
7205;SDS011;3644;53.480;10.004;2022-08-03T00:00:07;4.93;;;4.37;;
7205;SDS011;3644;53.480;10.004;2022-08-03T00:02:33;6.40;;;4.53;;
7205;SDS011;3644;53.480;10.004;2022-08-03T00:04:58;4.77;;;4.37;;
7205;SDS011;3644;53.480;10.004;2022-08-03T00:07:24;3.80;;;3.47;;
7205;SDS011;3644;53.480;10.004;2022-08-03T00:09:49;10.63;;;5.20;;
7205;SDS011;3644;53.480;10.004;2022-08-03T00:12:15;7.97;;;4.43;;
7205;SDS011;3644;53.480;10.004;2022-08-03T00:14:41;5.57;;;4.40;;
7205;SDS011;3644;53.480;10.004;2022-08-03T00:17:06;5.30;;;4.70;;
7205;SDS011;3644;53.480;10.004;2022-08-03T00:19:32;3.97;;;3.63;;
7205;SDS011;3644;53.480;10.004;2022-08-03T00:21:57;8.27;;;4.40;;
7205;SDS011;3644;53.480;10.004;2022-08-03T00:24:23;5.63;;;4.87;;
7205;SDS011;3644;53.480;10.004;2022-08-03T00:26:48;5.60;;;4.37;;
7205;SDS011;3644;53.480;10.004;2022-08-03T00:29:14;4.57;;;4.17;;
7205;SDS011;3644;53.480;10.004;2022-08-03T00:31:39;5.93;;;4.63;;
7205;SDS011;3644;53.480;10.004;2022-08-03T00:34:05;5.50;;;4.73;;
7205;SDS011;3644;53.480;10.004;2022-08-03T00:36:30;6.17;;;5.30;;
7205;SDS011;3644;53.480;10.004;2022-08-03T00:38:56;6.07;;;5.53;;
7205;SDS011;3644;53.480;10.004;2022-08-03T00:41:22;6.20;;;5.13;;
7205;SDS011;3644;53.480;10.004;2022-08-03T00:43:47;5.77;;;5.17;;
7205;SDS011;3644;53.480;10.004;2022-08-03T00:46:13;6.33;;;4.80;;
7205;SDS011;3644;53.480;10.004;2022-08-03T00:48:38;5.77;;;4.90;;
7205;SDS011;3644;53.480;10.004;2022-08-03T00:51:04;6.23;;;4.70;;
7205;SDS011;3644;53.480;10.004;2022-08-03T00:53:30;6.70;;;5.27;;
7205;SDS011;3644;53.480;10.004;2022-08-03T00:55:57;4.90;;;4.33;;
7205;SDS011;3644;53.480;10.004;2022-08-03T00:58:23;6.60;;;5.30;;
7205;SDS011;3644;53.480;10.004;2022-08-03T01:00:48;6.17;;;4.70;;
7205;SDS011;3644;53.480;10.004;2022-08-03T01:03:14;14.67;;;4.77;;
7205;SDS011;3644;53.480;10.004;2022-08-03T01:06:23;5.40;;;4.87;;
7205;SDS011;3644;53.480;10.004;2022-08-03T01:11:20;6.27;;;5.07;;
7205;SDS011;3644;53.480;10.004;2022-08-03T01:16:43;6.57;;;4.67;;
7205;SDS011;3644;53.480;10.004;2022-08-03T01:22:19;8.13;;;5.00;;
7205;SDS011;3644;53.480;10.004;2022-08-03T01:24:58;6.10;;;4.93;;
7205;SDS011;3644;53.480;10.004;2022-08-03T01:30:34;11.17;;;4.60;;
7205;SDS011;3644;53.480;10.004;2022-08-03T01:33:03;6.03;;;4.63;;
7205;SDS011;3644;53.480;10.004;2022-08-03T01:35:35;5.27;;;4.77;;
7205;SDS011;3644;53.480;10.004;2022-08-03T01:38:14;5.27;;;4.77;;
7205;SDS011;3644;53.480;10.004;2022-08-03T01:40:48;5.10;;;4.70;;
7205;SDS011;3644;53.480;10.004;2022-08-03T01:43:18;6.23;;;5.30;;
7205;SDS011;3644;53.480;10.004;2022-08-03T01:45:45;6.40;;;5.10;;
7205;SDS011;3644;53.480;10.004;2022-08-03T01:48:12;5.17;;;4.77;;
7205;SDS011;3644;53.480;10.004;2022-08-03T01:50:41;6.93;;;5.20;;
7205;SDS011;3644;53.480;10.004;2022-08-03T01:53:08;5.33;;;4.83;;
7205;SDS011;3644;53.480;10.004;2022-08-03T01:55:35;7.70;;;5.17;;
7205;SDS011;3644;53.480;10.004;2022-08-03T01:58:02;7.87;;;5.10;;
7205;SDS011;3644;53.480;10.004;2022-08-03T02:00:29;5.37;;;4.87;;
7205;SDS011;3644;53.480;10.004;2022-08-03T02:02:56;6.87;;;5.50;;
7205;SDS011;3644;53.480;10.004;2022-08-03T02:05:22;5.60;;;4.50;;
7205;SDS011;3644;53.480;10.004;2022-08-03T02:07:50;8.30;;;5.13;;
7205;SDS011;3644;53.480;10.004;2022-08-03T02:10:18;5.73;;;4.83;;
7205;SDS011;3644;53.480;10.004;2022-08-03T02:12:44;5.77;;;5.27;;
7205;SDS011;3644;53.480;10.004;2022-08-03T02:15:11;11.00;;;4.83;;
7205;SDS011;3644;53.480;10.004;2022-08-03T02:17:40;5.40;;;4.90;;
7205;SDS011;3644;53.480;10.004;2022-08-03T02:20:08;5.50;;;5.00;;
7205;SDS011;3644;53.480;10.004;2022-08-03T02:22:38;6.63;;;6.03;;
7205;SDS011;3644;53.480;10.004;2022-08-03T02:25:05;5.10;;;4.60;;
7205;SDS011;3644;53.480;10.004;2022-08-03T02:27:35;5.80;;;5.30;;
7205;SDS011;3644;53.480;10.004;2022-08-03T02:30:07;5.70;;;5.20;;
7205;SDS011;3644;53.480;10.004;2022-08-03T02:32:35;6.47;;;5.57;;
7205;SDS011;3644;53.480;10.004;2022-08-03T02:35:04;9.27;;;6.10;;
7205;SDS011;3644;53.480;10.004;2022-08-03T02:37:34;9.30;;;5.07;;
7205;SDS011;3644;53.480;10.004;2022-08-03T02:40:05;5.73;;;4.60;;
7205;SDS011;3644;53.480;10.004;2022-08-03T02:42:33;5.83;;;5.33;;
7205;SDS011;3644;53.480;10.004;2022-08-03T02:45:01;6.00;;;5.47;;
7205;SDS011;3644;53.480;10.004;2022-08-03T02:47:29;6.50;;;5.37;;
7205;SDS011;3644;53.480;10.004;2022-08-03T02:49:56;6.50;;;5.80;;
7205;SDS011;3644;53.480;10.004;2022-08-03T02:52:24;6.17;;;5.67;;
7205;SDS011;3644;53.480;10.004;2022-08-03T02:54:54;5.63;;;5.13;;
7205;SDS011;3644;53.480;10.004;2022-08-03T02:57:21;6.97;;;5.87;;
7205;SDS011;3644;53.480;10.004;2022-08-03T02:59:48;5.73;;;5.10;;
7205;SDS011;3644;53.480;10.004;2022-08-03T03:02:16;14.77;;;6.57;;
7205;SDS011;3644;53.480;10.004;2022-08-03T03:04:42;6.73;;;6.03;;
7205;SDS011;3644;53.480;10.004;2022-08-03T03:07:10;16.93;;;5.40;;
7205;SDS011;3644;53.480;10.004;2022-08-03T03:09:37;9.33;;;6.03;;
7205;SDS011;3644;53.480;10.004;2022-08-03T03:12:03;7.13;;;6.43;;
7205;SDS011;3644;53.480;10.004;2022-08-03T03:14:30;6.33;;;5.83;;
7205;SDS011;3644;53.480;10.004;2022-08-03T03:16:57;9.20;;;6.50;;
7205;SDS011;3644;53.480;10.004;2022-08-03T03:19:23;7.07;;;6.27;;
7205;SDS011;3644;53.480;10.004;2022-08-03T03:21:50;10.20;;;5.80;;
7205;SDS011;3644;53.480;10.004;2022-08-03T03:24:16;7.10;;;6.50;;
7205;SDS011;3644;53.480;10.004;2022-08-03T03:26:42;6.23;;;5.63;;
7205;SDS011;3644;53.480;10.004;2022-08-03T03:29:08;6.90;;;6.30;;
7205;SDS011;3644;53.480;10.004;2022-08-03T03:31:34;6.93;;;5.60;;
7205;SDS011;3644;53.480;10.004;2022-08-03T03:34:00;9.70;;;6.60;;
7205;SDS011;3644;53.480;10.004;2022-08-03T03:36:26;8.93;;;5.60;;
7205;SDS011;3644;53.480;10.004;2022-08-03T03:38:52;6.87;;;6.27;;
7205;SDS011;3644;53.480;10.004;2022-08-03T03:41:18;8.43;;;6.03;;
7205;SDS011;3644;53.480;10.004;2022-08-03T03:43:43;7.17;;;6.47;;
7205;SDS011;3644;53.480;10.004;2022-08-03T03:46:11;6.33;;;5.83;;
7205;SDS011;3644;53.480;10.004;2022-08-03T03:48:37;6.77;;;6.17;;
7205;SDS011;3644;53.480;10.004;2022-08-03T03:51:03;6.80;;;6.10;;
7205;SDS011;3644;53.480;10.004;2022-08-03T03:53:29;6.50;;;5.90;;
7205;SDS011;3644;53.480;10.004;2022-08-03T03:55:55;7.20;;;5.63;;
7205;SDS011;3644;53.480;10.004;2022-08-03T03:58:20;6.90;;;6.30;;
7205;SDS011;3644;53.480;10.004;2022-08-03T04:00:46;6.90;;;6.33;;
7205;SDS011;3644;53.480;10.004;2022-08-03T04:03:11;8.70;;;6.50;;
7205;SDS011;3644;53.480;10.004;2022-08-03T04:05:37;6.50;;;5.90;;
7205;SDS011;3644;53.480;10.004;2022-08-03T04:08:21;7.57;;;6.57;;
7205;SDS011;3644;53.480;10.004;2022-08-03T04:11:08;11.47;;;6.47;;
7205;SDS011;3644;53.480;10.004;2022-08-03T04:13:41;8.47;;;6.90;;
7205;SDS011;3644;53.480;10.004;2022-08-03T04:16:11;8.23;;;7.43;;
7205;SDS011;3644;53.480;10.004;2022-08-03T04:18:39;10.60;;;6.90;;
7205;SDS011;3644;53.480;10.004;2022-08-03T04:21:07;6.60;;;6.00;;
7205;SDS011;3644;53.480;10.004;2022-08-03T04:23:36;7.00;;;6.20;;
7205;SDS011;3644;53.480;10.004;2022-08-03T04:26:05;7.53;;;6.73;;
7205;SDS011;3644;53.480;10.004;2022-08-03T04:28:34;7.13;;;6.17;;
7205;SDS011;3644;53.480;10.004;2022-08-03T04:31:01;7.97;;;7.17;;
7205;SDS011;3644;53.480;10.004;2022-08-03T04:33:28;7.53;;;6.83;;
7205;SDS011;3644;53.480;10.004;2022-08-03T04:36:00;10.77;;;6.87;;
7205;SDS011;3644;53.480;10.004;2022-08-03T04:38:28;9.50;;;7.50;;
7205;SDS011;3644;53.480;10.004;2022-08-03T04:41:00;9.60;;;6.47;;
7205;SDS011;3644;53.480;10.004;2022-08-03T04:43:26;8.73;;;7.47;;
7205;SDS011;3644;53.480;10.004;2022-08-03T04:45:53;9.90;;;7.60;;
7205;SDS011;3644;53.480;10.004;2022-08-03T04:48:20;7.20;;;6.60;;
7205;SDS011;3644;53.480;10.004;2022-08-03T04:50:46;9.13;;;6.83;;
7205;SDS011;3644;53.480;10.004;2022-08-03T04:53:11;7.13;;;6.50;;
7205;SDS011;3644;53.480;10.004;2022-08-03T04:55:37;8.10;;;7.30;;
7205;SDS011;3644;53.480;10.004;2022-08-03T04:58:03;8.60;;;7.77;;
7205;SDS011;3644;53.480;10.004;2022-08-03T05:00:28;10.63;;;7.90;;
7205;SDS011;3644;53.480;10.004;2022-08-03T05:02:54;8.03;;;6.97;;
7205;SDS011;3644;53.480;10.004;2022-08-03T05:05:20;9.20;;;7.73;;
7205;SDS011;3644;53.480;10.004;2022-08-03T05:07:46;13.97;;;7.50;;
7205;SDS011;3644;53.480;10.004;2022-08-03T05:10:12;9.50;;;7.87;;
7205;SDS011;3644;53.480;10.004;2022-08-03T05:12:38;11.80;;;8.50;;
7205;SDS011;3644;53.480;10.004;2022-08-03T05:15:05;8.60;;;7.37;;
7205;SDS011;3644;53.480;10.004;2022-08-03T05:17:31;8.30;;;7.40;;
7205;SDS011;3644;53.480;10.004;2022-08-03T05:20:00;7.97;;;7.13;;
7205;SDS011;3644;53.480;10.004;2022-08-03T05:22:27;15.30;;;8.00;;
7205;SDS011;3644;53.480;10.004;2022-08-03T05:24:53;8.40;;;7.63;;
7205;SDS011;3644;53.480;10.004;2022-08-03T05:27:18;7.90;;;6.60;;
7205;SDS011;3644;53.480;10.004;2022-08-03T05:29:44;6.87;;;6.30;;
7205;SDS011;3644;53.480;10.004;2022-08-03T05:32:10;9.53;;;7.33;;
7205;SDS011;3644;53.480;10.004;2022-08-03T05:34:36;11.03;;;7.13;;
7205;SDS011;3644;53.480;10.004;2022-08-03T05:37:02;15.23;;;8.07;;
7205;SDS011;3644;53.480;10.004;2022-08-03T05:39:27;9.00;;;7.00;;
7205;SDS011;3644;53.480;10.004;2022-08-03T05:41:53;8.67;;;7.20;;
7205;SDS011;3644;53.480;10.004;2022-08-03T05:44:18;16.93;;;7.10;;
7205;SDS011;3644;53.480;10.004;2022-08-03T05:46:44;9.23;;;7.67;;
7205;SDS011;3644;53.480;10.004;2022-08-03T05:49:10;7.53;;;6.50;;
7205;SDS011;3644;53.480;10.004;2022-08-03T05:51:36;7.70;;;7.10;;
7205;SDS011;3644;53.480;10.004;2022-08-03T05:54:02;7.53;;;6.83;;
7205;SDS011;3644;53.480;10.004;2022-08-03T05:56:27;8.20;;;6.37;;
7205;SDS011;3644;53.480;10.004;2022-08-03T05:58:53;6.10;;;5.50;;
7205;SDS011;3644;53.480;10.004;2022-08-03T06:01:19;7.33;;;6.63;;
7205;SDS011;3644;53.480;10.004;2022-08-03T06:03:48;6.83;;;6.27;;
7205;SDS011;3644;53.480;10.004;2022-08-03T06:06:14;10.70;;;7.00;;
7205;SDS011;3644;53.480;10.004;2022-08-03T06:08:40;9.93;;;6.90;;
7205;SDS011;3644;53.480;10.004;2022-08-03T06:11:06;9.13;;;7.03;;
7205;SDS011;3644;53.480;10.004;2022-08-03T06:13:32;8.27;;;6.10;;
7205;SDS011;3644;53.480;10.004;2022-08-03T06:15:58;6.73;;;6.10;;
7205;SDS011;3644;53.480;10.004;2022-08-03T06:18:23;14.53;;;6.90;;
7205;SDS011;3644;53.480;10.004;2022-08-03T06:20:49;7.03;;;6.27;;
7205;SDS011;3644;53.480;10.004;2022-08-03T06:23:15;7.47;;;6.60;;
7205;SDS011;3644;53.480;10.004;2022-08-03T06:25:41;13.27;;;6.40;;
7205;SDS011;3644;53.480;10.004;2022-08-03T06:28:07;7.40;;;6.03;;
7205;SDS011;3644;53.480;10.004;2022-08-03T06:30:33;7.53;;;6.27;;
7205;SDS011;3644;53.480;10.004;2022-08-03T06:32:58;12.03;;;6.67;;
7205;SDS011;3644;53.480;10.004;2022-08-03T06:35:24;9.93;;;5.83;;
7205;SDS011;3644;53.480;10.004;2022-08-03T06:37:51;11.53;;;5.67;;
7205;SDS011;3644;53.480;10.004;2022-08-03T06:40:18;11.00;;;5.10;;
7205;SDS011;3644;53.480;10.004;2022-08-03T06:42:52;8.57;;;4.87;;
7205;SDS011;3644;53.480;10.004;2022-08-03T06:45:18;5.20;;;4.63;;
7205;SDS011;3644;53.480;10.004;2022-08-03T06:47:44;7.07;;;4.97;;
7205;SDS011;3644;53.480;10.004;2022-08-03T06:50:09;7.50;;;4.63;;
7205;SDS011;3644;53.480;10.004;2022-08-03T06:52:35;6.20;;;3.90;;
7205;SDS011;3644;53.480;10.004;2022-08-03T06:55:01;3.67;;;3.37;;
7205;SDS011;3644;53.480;10.004;2022-08-03T06:57:28;3.83;;;3.40;;
7205;SDS011;3644;53.480;10.004;2022-08-03T06:59:53;3.63;;;3.30;;
7205;SDS011;3644;53.480;10.004;2022-08-03T07:02:20;6.30;;;4.27;;
7205;SDS011;3644;53.480;10.004;2022-08-03T07:04:46;3.50;;;3.20;;
7205;SDS011;3644;53.480;10.004;2022-08-03T07:07:12;4.90;;;3.47;;
7205;SDS011;3644;53.480;10.004;2022-08-03T07:09:38;5.30;;;3.40;;
7205;SDS011;3644;53.480;10.004;2022-08-03T07:12:03;8.60;;;3.00;;
7205;SDS011;3644;53.480;10.004;2022-08-03T07:14:30;4.00;;;3.03;;
7205;SDS011;3644;53.480;10.004;2022-08-03T07:16:56;3.30;;;3.00;;
7205;SDS011;3644;53.480;10.004;2022-08-03T07:19:21;9.27;;;4.10;;
7205;SDS011;3644;53.480;10.004;2022-08-03T07:21:47;5.77;;;3.27;;
7205;SDS011;3644;53.480;10.004;2022-08-03T07:24:12;5.33;;;3.43;;
7205;SDS011;3644;53.480;10.004;2022-08-03T07:26:38;6.30;;;3.80;;
7205;SDS011;3644;53.480;10.004;2022-08-03T07:29:03;9.87;;;3.20;;
7205;SDS011;3644;53.480;10.004;2022-08-03T07:31:29;2.87;;;2.67;;
7205;SDS011;3644;53.480;10.004;2022-08-03T07:33:54;3.60;;;3.30;;
7205;SDS011;3644;53.480;10.004;2022-08-03T07:36:21;6.90;;;2.70;;
7205;SDS011;3644;53.480;10.004;2022-08-03T07:38:48;3.90;;;2.90;;
7205;SDS011;3644;53.480;10.004;2022-08-03T07:41:14;9.40;;;2.37;;
7205;SDS011;3644;53.480;10.004;2022-08-03T07:43:40;4.17;;;2.60;;
7205;SDS011;3644;53.480;10.004;2022-08-03T07:46:05;8.30;;;2.70;;
7205;SDS011;3644;53.480;10.004;2022-08-03T07:48:31;2.40;;;2.20;;
7205;SDS011;3644;53.480;10.004;2022-08-03T07:50:56;14.33;;;2.47;;
7205;SDS011;3644;53.480;10.004;2022-08-03T07:53:22;5.53;;;2.80;;
7205;SDS011;3644;53.480;10.004;2022-08-03T07:55:47;4.00;;;2.70;;
7205;SDS011;3644;53.480;10.004;2022-08-03T07:58:13;2.50;;;2.30;;
7205;SDS011;3644;53.480;10.004;2022-08-03T08:00:41;2.47;;;2.30;;
7205;SDS011;3644;53.480;10.004;2022-08-03T08:03:08;9.13;;;2.20;;
7205;SDS011;3644;53.480;10.004;2022-08-03T08:05:34;3.97;;;2.37;;
7205;SDS011;3644;53.480;10.004;2022-08-03T08:08:00;3.00;;;2.23;;
7205;SDS011;3644;53.480;10.004;2022-08-03T08:10:26;5.23;;;2.27;;
7205;SDS011;3644;53.480;10.004;2022-08-03T08:12:53;9.27;;;2.43;;
7205;SDS011;3644;53.480;10.004;2022-08-03T08:15:18;4.37;;;2.43;;
7205;SDS011;3644;53.480;10.004;2022-08-03T08:17:45;4.63;;;2.07;;
7205;SDS011;3644;53.480;10.004;2022-08-03T08:20:17;5.67;;;2.40;;
7205;SDS011;3644;53.480;10.004;2022-08-03T08:22:44;4.70;;;2.53;;
7205;SDS011;3644;53.480;10.004;2022-08-03T08:25:09;7.17;;;2.20;;
7205;SDS011;3644;53.480;10.004;2022-08-03T08:27:42;7.07;;;3.00;;
7205;SDS011;3644;53.480;10.004;2022-08-03T08:30:13;2.33;;;2.10;;
7205;SDS011;3644;53.480;10.004;2022-08-03T08:32:40;4.17;;;2.03;;
7205;SDS011;3644;53.480;10.004;2022-08-03T08:35:06;2.73;;;1.70;;
7205;SDS011;3644;53.480;10.004;2022-08-03T08:37:33;7.70;;;2.10;;
7205;SDS011;3644;53.480;10.004;2022-08-03T08:39:59;8.57;;;2.07;;
7205;SDS011;3644;53.480;10.004;2022-08-03T08:42:24;6.97;;;2.40;;
7205;SDS011;3644;53.480;10.004;2022-08-03T08:44:50;6.63;;;1.93;;
7205;SDS011;3644;53.480;10.004;2022-08-03T08:47:17;3.57;;;1.73;;
7205;SDS011;3644;53.480;10.004;2022-08-03T08:49:43;2.13;;;2.00;;
7205;SDS011;3644;53.480;10.004;2022-08-03T08:52:10;3.70;;;2.20;;
7205;SDS011;3644;53.480;10.004;2022-08-03T08:54:39;4.00;;;2.07;;
7205;SDS011;3644;53.480;10.004;2022-08-03T08:57:06;2.87;;;2.10;;
7205;SDS011;3644;53.480;10.004;2022-08-03T08:59:33;8.00;;;2.33;;
7205;SDS011;3644;53.480;10.004;2022-08-03T09:01:59;9.63;;;3.00;;
7205;SDS011;3644;53.480;10.004;2022-08-03T09:04:25;5.37;;;1.93;;
7205;SDS011;3644;53.480;10.004;2022-08-03T09:06:55;2.70;;;1.60;;
7205;SDS011;3644;53.480;10.004;2022-08-03T09:09:20;5.90;;;2.23;;
7205;SDS011;3644;53.480;10.004;2022-08-03T09:11:47;4.90;;;2.27;;
7205;SDS011;3644;53.480;10.004;2022-08-03T09:14:13;7.17;;;2.30;;
7205;SDS011;3644;53.480;10.004;2022-08-03T09:16:54;4.00;;;2.37;;
7205;SDS011;3644;53.480;10.004;2022-08-03T09:19:21;3.70;;;1.63;;
7205;SDS011;3644;53.480;10.004;2022-08-03T09:21:47;5.63;;;2.23;;
7205;SDS011;3644;53.480;10.004;2022-08-03T09:24:37;4.70;;;1.63;;
7205;SDS011;3644;53.480;10.004;2022-08-03T09:27:20;3.30;;;1.70;;
7205;SDS011;3644;53.480;10.004;2022-08-03T09:29:49;4.00;;;1.57;;
7205;SDS011;3644;53.480;10.004;2022-08-03T09:32:18;5.93;;;2.30;;
7205;SDS011;3644;53.480;10.004;2022-08-03T09:34:49;2.50;;;1.67;;
7205;SDS011;3644;53.480;10.004;2022-08-03T09:37:16;1.83;;;1.70;;
7205;SDS011;3644;53.480;10.004;2022-08-03T09:39:43;2.80;;;1.80;;
7205;SDS011;3644;53.480;10.004;2022-08-03T09:42:10;8.47;;;2.20;;
7205;SDS011;3644;53.480;10.004;2022-08-03T09:44:38;2.90;;;2.23;;
7205;SDS011;3644;53.480;10.004;2022-08-03T09:47:09;6.77;;;2.10;;
7205;SDS011;3644;53.480;10.004;2022-08-03T09:49:37;4.13;;;1.70;;
7205;SDS011;3644;53.480;10.004;2022-08-03T09:52:17;7.23;;;2.43;;
7205;SDS011;3644;53.480;10.004;2022-08-03T09:54:49;3.00;;;1.97;;
7205;SDS011;3644;53.480;10.004;2022-08-03T09:57:19;4.57;;;2.00;;
7205;SDS011;3644;53.480;10.004;2022-08-03T09:59:46;4.53;;;1.90;;
7205;SDS011;3644;53.480;10.004;2022-08-03T10:02:25;4.73;;;1.83;;
7205;SDS011;3644;53.480;10.004;2022-08-03T10:04:51;7.90;;;2.17;;
7205;SDS011;3644;53.480;10.004;2022-08-03T10:07:21;5.40;;;2.43;;
7205;SDS011;3644;53.480;10.004;2022-08-03T10:10:06;12.57;;;2.10;;
7205;SDS011;3644;53.480;10.004;2022-08-03T10:12:33;8.53;;;2.40;;
7205;SDS011;3644;53.480;10.004;2022-08-03T10:14:59;5.80;;;2.00;;
7205;SDS011;3644;53.480;10.004;2022-08-03T10:17:25;7.13;;;2.20;;
7205;SDS011;3644;53.480;10.004;2022-08-03T10:19:50;5.40;;;1.90;;
7205;SDS011;3644;53.480;10.004;2022-08-03T10:22:22;8.32;;;1.88;;
7205;SDS011;3644;53.480;10.004;2022-08-03T10:25:05;2.13;;;1.70;;
7205;SDS011;3644;53.480;10.004;2022-08-03T10:27:33;2.60;;;1.97;;
7205;SDS011;3644;53.480;10.004;2022-08-03T10:30:03;7.28;;;2.17;;
7205;SDS011;3644;53.480;10.004;2022-08-03T10:32:33;5.03;;;1.90;;
7205;SDS011;3644;53.480;10.004;2022-08-03T10:35:04;7.93;;;2.50;;
7205;SDS011;3644;53.480;10.004;2022-08-03T10:37:32;8.25;;;2.15;;
7205;SDS011;3644;53.480;10.004;2022-08-03T10:40:01;6.70;;;1.67;;
7205;SDS011;3644;53.480;10.004;2022-08-03T10:42:28;7.65;;;1.80;;
7205;SDS011;3644;53.480;10.004;2022-08-03T10:45:05;4.18;;;1.73;;
7205;SDS011;3644;53.480;10.004;2022-08-03T10:47:36;5.20;;;2.17;;
7205;SDS011;3644;53.480;10.004;2022-08-03T10:50:02;7.93;;;1.73;;
7205;SDS011;3644;53.480;10.004;2022-08-03T10:52:28;5.97;;;2.20;;
7205;SDS011;3644;53.480;10.004;2022-08-03T10:54:54;3.80;;;1.97;;
7205;SDS011;3644;53.480;10.004;2022-08-03T10:57:51;5.05;;;2.42;;
7205;SDS011;3644;53.480;10.004;2022-08-03T11:00:21;4.32;;;2.13;;
7205;SDS011;3644;53.480;10.004;2022-08-03T11:03:01;5.30;;;2.38;;
7205;SDS011;3644;53.480;10.004;2022-08-03T11:05:30;7.72;;;1.63;;
7205;SDS011;3644;53.480;10.004;2022-08-03T11:08:32;9.27;;;1.88;;
7205;SDS011;3644;53.480;10.004;2022-08-03T11:10:49;4.90;;;2.53;;
7205;SDS011;3644;53.480;10.004;2022-08-03T11:13:18;4.55;;;1.85;;
7205;SDS011;3644;53.480;10.004;2022-08-03T11:15:47;4.72;;;1.90;;
7205;SDS011;3644;53.480;10.004;2022-08-03T11:18:15;7.85;;;3.00;;
7205;SDS011;3644;53.480;10.004;2022-08-03T11:23:40;12.55;;;2.67;;
7205;SDS011;3644;53.480;10.004;2022-08-03T11:26:13;4.97;;;1.38;;
7205;SDS011;3644;53.480;10.004;2022-08-03T11:28:40;4.72;;;1.80;;
7205;SDS011;3644;53.480;10.004;2022-08-03T11:34:08;3.60;;;1.83;;
7205;SDS011;3644;53.480;10.004;2022-08-03T11:42:36;9.38;;;1.90;;
7205;SDS011;3644;53.480;10.004;2022-08-03T11:44:59;5.88;;;1.75;;
7205;SDS011;3644;53.480;10.004;2022-08-03T11:47:25;10.07;;;2.50;;
7205;SDS011;3644;53.480;10.004;2022-08-03T11:49:53;12.45;;;2.17;;
7205;SDS011;3644;53.480;10.004;2022-08-03T11:52:21;6.57;;;1.42;;
7205;SDS011;3644;53.480;10.004;2022-08-03T11:54:51;8.50;;;2.10;;
7205;SDS011;3644;53.480;10.004;2022-08-03T11:57:30;10.05;;;2.05;;
7205;SDS011;3644;53.480;10.004;2022-08-03T11:59:57;4.00;;;2.10;;
7205;SDS011;3644;53.480;10.004;2022-08-03T12:02:23;3.90;;;2.00;;
7205;SDS011;3644;53.480;10.004;2022-08-03T12:04:52;5.57;;;1.70;;
7205;SDS011;3644;53.480;10.004;2022-08-03T12:07:26;4.95;;;2.00;;
7205;SDS011;3644;53.480;10.004;2022-08-03T12:10:12;3.53;;;1.65;;
7205;SDS011;3644;53.480;10.004;2022-08-03T12:12:39;6.57;;;1.50;;
7205;SDS011;3644;53.480;10.004;2022-08-03T12:15:06;5.82;;;1.80;;
7205;SDS011;3644;53.480;10.004;2022-08-03T12:17:33;10.32;;;2.33;;
7205;SDS011;3644;53.480;10.004;2022-08-03T12:19:59;6.68;;;1.88;;
7205;SDS011;3644;53.480;10.004;2022-08-03T12:22:32;5.50;;;1.67;;
7205;SDS011;3644;53.480;10.004;2022-08-03T12:25:07;8.70;;;1.70;;
7205;SDS011;3644;53.480;10.004;2022-08-03T12:27:45;3.95;;;1.58;;
7205;SDS011;3644;53.480;10.004;2022-08-03T12:30:11;14.82;;;1.80;;
7205;SDS011;3644;53.480;10.004;2022-08-03T12:32:37;5.03;;;1.90;;
7205;SDS011;3644;53.480;10.004;2022-08-03T12:35:03;2.30;;;1.80;;
7205;SDS011;3644;53.480;10.004;2022-08-03T12:37:30;10.70;;;2.10;;
7205;SDS011;3644;53.480;10.004;2022-08-03T12:39:57;4.00;;;1.60;;
7205;SDS011;3644;53.480;10.004;2022-08-03T12:42:32;4.07;;;1.98;;
7205;SDS011;3644;53.480;10.004;2022-08-03T12:44:59;15.90;;;2.00;;
7205;SDS011;3644;53.480;10.004;2022-08-03T12:47:24;6.65;;;1.60;;
7205;SDS011;3644;53.480;10.004;2022-08-03T12:49:51;6.60;;;2.17;;
7205;SDS011;3644;53.480;10.004;2022-08-03T12:52:21;5.88;;;1.50;;
7205;SDS011;3644;53.480;10.004;2022-08-03T12:54:53;5.45;;;1.70;;
7205;SDS011;3644;53.480;10.004;2022-08-03T12:57:23;8.10;;;2.10;;
7205;SDS011;3644;53.480;10.004;2022-08-03T12:59:49;2.75;;;1.60;;
7205;SDS011;3644;53.480;10.004;2022-08-03T13:02:16;3.22;;;1.67;;
7205;SDS011;3644;53.480;10.004;2022-08-03T13:04:41;5.22;;;2.03;;
7205;SDS011;3644;53.480;10.004;2022-08-03T13:07:09;4.30;;;1.67;;
7205;SDS011;3644;53.480;10.004;2022-08-03T13:09:40;4.65;;;2.05;;
7205;SDS011;3644;53.480;10.004;2022-08-03T13:12:11;10.93;;;2.28;;
7205;SDS011;3644;53.480;10.004;2022-08-03T13:14:37;7.38;;;1.85;;
7205;SDS011;3644;53.480;10.004;2022-08-03T13:17:03;8.15;;;1.80;;
7205;SDS011;3644;53.480;10.004;2022-08-03T13:19:30;3.13;;;1.55;;
7205;SDS011;3644;53.480;10.004;2022-08-03T13:21:57;7.32;;;2.00;;
7205;SDS011;3644;53.480;10.004;2022-08-03T13:24:23;10.48;;;2.05;;
7205;SDS011;3644;53.480;10.004;2022-08-03T13:26:48;2.88;;;1.67;;
7205;SDS011;3644;53.480;10.004;2022-08-03T13:29:15;5.78;;;2.05;;
7205;SDS011;3644;53.480;10.004;2022-08-03T13:31:41;3.42;;;1.67;;
7205;SDS011;3644;53.480;10.004;2022-08-03T13:34:06;11.15;;;2.10;;
7205;SDS011;3644;53.480;10.004;2022-08-03T13:36:32;7.95;;;2.22;;
7205;SDS011;3644;53.480;10.004;2022-08-03T13:38:57;9.38;;;1.77;;
7205;SDS011;3644;53.480;10.004;2022-08-03T13:41:23;4.55;;;1.80;;
7205;SDS011;3644;53.480;10.004;2022-08-03T13:43:48;4.18;;;2.22;;
7205;SDS011;3644;53.480;10.004;2022-08-03T13:46:14;4.40;;;1.90;;
7205;SDS011;3644;53.480;10.004;2022-08-03T13:48:39;10.65;;;2.15;;
7205;SDS011;3644;53.480;10.004;2022-08-03T13:51:05;9.73;;;2.47;;
7205;SDS011;3644;53.480;10.004;2022-08-03T13:53:30;5.68;;;1.80;;
7205;SDS011;3644;53.480;10.004;2022-08-03T13:55:56;6.90;;;2.42;;
7205;SDS011;3644;53.480;10.004;2022-08-03T13:58:21;4.57;;;1.75;;
7205;SDS011;3644;53.480;10.004;2022-08-03T14:00:47;2.78;;;1.58;;
7205;SDS011;3644;53.480;10.004;2022-08-03T14:03:12;6.10;;;1.70;;
7205;SDS011;3644;53.480;10.004;2022-08-03T14:05:38;7.97;;;2.10;;
7205;SDS011;3644;53.480;10.004;2022-08-03T14:08:05;8.27;;;1.92;;
7205;SDS011;3644;53.480;10.004;2022-08-03T14:10:34;6.03;;;1.63;;
7205;SDS011;3644;53.480;10.004;2022-08-03T14:13:01;5.35;;;2.40;;
7205;SDS011;3644;53.480;10.004;2022-08-03T14:15:27;2.42;;;1.63;;
7205;SDS011;3644;53.480;10.004;2022-08-03T14:17:53;2.70;;;1.52;;
7205;SDS011;3644;53.480;10.004;2022-08-03T14:20:19;2.97;;;1.52;;
7205;SDS011;3644;53.480;10.004;2022-08-03T14:22:45;6.93;;;1.80;;
7205;SDS011;3644;53.480;10.004;2022-08-03T14:25:10;5.95;;;1.90;;
7205;SDS011;3644;53.480;10.004;2022-08-03T14:27:36;5.07;;;1.77;;
7205;SDS011;3644;53.480;10.004;2022-08-03T14:30:01;5.40;;;1.83;;
7205;SDS011;3644;53.480;10.004;2022-08-03T14:32:27;8.43;;;2.20;;
7205;SDS011;3644;53.480;10.004;2022-08-03T14:34:53;6.25;;;1.98;;
7205;SDS011;3644;53.480;10.004;2022-08-03T14:37:18;5.47;;;2.75;;
7205;SDS011;3644;53.480;10.004;2022-08-03T14:39:44;5.35;;;2.10;;
7205;SDS011;3644;53.480;10.004;2022-08-03T14:42:11;3.15;;;1.40;;
7205;SDS011;3644;53.480;10.004;2022-08-03T14:44:37;4.03;;;1.77;;
7205;SDS011;3644;53.480;10.004;2022-08-03T14:47:02;4.70;;;2.08;;
7205;SDS011;3644;53.480;10.004;2022-08-03T14:49:28;7.32;;;1.88;;
7205;SDS011;3644;53.480;10.004;2022-08-03T14:51:53;8.13;;;1.73;;
7205;SDS011;3644;53.480;10.004;2022-08-03T14:54:19;9.15;;;2.17;;
7205;SDS011;3644;53.480;10.004;2022-08-03T14:56:45;4.07;;;1.52;;
7205;SDS011;3644;53.480;10.004;2022-08-03T14:59:11;3.35;;;1.70;;
7205;SDS011;3644;53.480;10.004;2022-08-03T15:01:36;4.35;;;1.85;;
7205;SDS011;3644;53.480;10.004;2022-08-03T15:04:02;7.80;;;2.20;;
7205;SDS011;3644;53.480;10.004;2022-08-03T15:06:28;3.17;;;1.90;;
7205;SDS011;3644;53.480;10.004;2022-08-03T15:08:53;6.43;;;1.95;;
7205;SDS011;3644;53.480;10.004;2022-08-03T15:11:18;5.50;;;2.03;;
7205;SDS011;3644;53.480;10.004;2022-08-03T15:13:44;8.73;;;2.13;;
7205;SDS011;3644;53.480;10.004;2022-08-03T15:16:10;7.55;;;1.90;;
7205;SDS011;3644;53.480;10.004;2022-08-03T15:18:35;4.97;;;1.90;;
7205;SDS011;3644;53.480;10.004;2022-08-03T15:21:00;5.35;;;2.00;;
7205;SDS011;3644;53.480;10.004;2022-08-03T15:23:26;14.15;;;2.28;;
7205;SDS011;3644;53.480;10.004;2022-08-03T15:25:51;4.15;;;1.58;;